sensor_id;sensor_type;location;lat;lon;timestamp;temperature;humidity
16327;DHT22;34812;49.846;9.610;2022-08-04T00:00:39;19.50;99.90
16327;DHT22;34812;49.846;9.610;2022-08-04T00:01:47;19.50;99.90
16327;DHT22;34812;49.846;9.610;2022-08-04T00:03:01;19.50;99.90
16327;DHT22;34812;49.846;9.610;2022-08-04T00:04:12;19.40;99.90
16327;DHT22;34812;49.846;9.610;2022-08-04T00:05:31;19.40;99.90
16327;DHT22;34812;49.846;9.610;2022-08-04T00:06:45;19.40;99.90
16327;DHT22;34812;49.846;9.610;2022-08-04T00:07:57;19.40;99.90
16327;DHT22;34812;49.846;9.610;2022-08-04T00:09:05;19.40;99.90
16327;DHT22;34812;49.846;9.610;2022-08-04T00:10:09;19.40;99.90
16327;DHT22;34812;49.846;9.610;2022-08-04T00:11:14;19.30;99.90
16327;DHT22;34812;49.846;9.610;2022-08-04T00:12:16;19.30;99.90
16327;DHT22;34812;49.846;9.610;2022-08-04T00:13:22;19.40;99.90
16327;DHT22;34812;49.846;9.610;2022-08-04T00:14:25;19.40;99.90
16327;DHT22;34812;49.846;9.610;2022-08-04T00:15:30;19.40;99.90
16327;DHT22;34812;49.846;9.610;2022-08-04T00:16:35;19.40;99.90
16327;DHT22;34812;49.846;9.610;2022-08-04T00:17:40;19.40;99.90
16327;DHT22;34812;49.846;9.610;2022-08-04T00:18:46;19.40;99.90
16327;DHT22;34812;49.846;9.610;2022-08-04T00:19:52;19.30;99.90
16327;DHT22;34812;49.846;9.610;2022-08-04T00:20:58;19.30;99.90
16327;DHT22;34812;49.846;9.610;2022-08-04T00:22:03;19.30;99.90
16327;DHT22;34812;49.846;9.610;2022-08-04T00:23:05;19.30;99.90
16327;DHT22;34812;49.846;9.610;2022-08-04T00:24:07;19.30;99.90
16327;DHT22;34812;49.846;9.610;2022-08-04T00:25:09;19.30;99.90
16327;DHT22;34812;49.846;9.610;2022-08-04T00:26:11;19.20;99.90
16327;DHT22;34812;49.846;9.610;2022-08-04T00:27:15;19.20;99.90
16327;DHT22;34812;49.846;9.610;2022-08-04T00:28:17;19.10;99.90
16327;DHT22;34812;49.846;9.610;2022-08-04T00:29:18;19.10;99.90
16327;DHT22;34812;49.846;9.610;2022-08-04T00:30:21;19.10;99.90
16327;DHT22;34812;49.846;9.610;2022-08-04T00:31:22;19.10;99.90
16327;DHT22;34812;49.846;9.610;2022-08-04T00:32:26;19.10;99.90
16327;DHT22;34812;49.846;9.610;2022-08-04T00:33:26;19.00;99.90
16327;DHT22;34812;49.846;9.610;2022-08-04T00:34:30;19.00;99.90
16327;DHT22;34812;49.846;9.610;2022-08-04T00:35:31;19.00;99.90
16327;DHT22;34812;49.846;9.610;2022-08-04T00:36:33;19.00;99.90
16327;DHT22;34812;49.846;9.610;2022-08-04T00:37:36;19.00;99.90
16327;DHT22;34812;49.846;9.610;2022-08-04T00:38:40;18.90;99.90
16327;DHT22;34812;49.846;9.610;2022-08-04T00:39:41;19.00;99.90
16327;DHT22;34812;49.846;9.610;2022-08-04T00:40:49;18.90;99.90
16327;DHT22;34812;49.846;9.610;2022-08-04T00:42:24;18.90;99.90
16327;DHT22;34812;49.846;9.610;2022-08-04T00:43:31;18.80;99.90
16327;DHT22;34812;49.846;9.610;2022-08-04T00:44:38;18.80;99.90
16327;DHT22;34812;49.846;9.610;2022-08-04T00:47:36;18.70;99.90
16327;DHT22;34812;49.846;9.610;2022-08-04T00:48:55;18.70;99.90
16327;DHT22;34812;49.846;9.610;2022-08-04T00:50:08;18.80;99.90
16327;DHT22;34812;49.846;9.610;2022-08-04T00:51:14;18.70;99.90
16327;DHT22;34812;49.846;9.610;2022-08-04T00:52:28;18.70;99.90
16327;DHT22;34812;49.846;9.610;2022-08-04T00:53:43;18.70;99.90
16327;DHT22;34812;49.846;9.610;2022-08-04T00:55:00;18.70;99.90
16327;DHT22;34812;49.846;9.610;2022-08-04T00:56:31;18.70;99.90
16327;DHT22;34812;49.846;9.610;2022-08-04T00:57:54;18.70;99.90
16327;DHT22;34812;49.846;9.610;2022-08-04T00:59:02;18.70;99.90
16327;DHT22;34812;49.846;9.610;2022-08-04T01:00:06;18.60;99.90
16327;DHT22;34812;49.846;9.610;2022-08-04T01:01:28;18.60;99.90
16327;DHT22;34812;49.846;9.610;2022-08-04T01:02:51;18.50;99.90
16327;DHT22;34812;49.846;9.610;2022-08-04T01:04:02;18.50;99.90
16327;DHT22;34812;49.846;9.610;2022-08-04T01:05:05;18.40;99.90
16327;DHT22;34812;49.846;9.610;2022-08-04T01:06:11;18.40;99.90
16327;DHT22;34812;49.846;9.610;2022-08-04T01:07:41;18.40;99.90
16327;DHT22;34812;49.846;9.610;2022-08-04T01:10:15;18.30;99.90
16327;DHT22;34812;49.846;9.610;2022-08-04T01:11:30;18.30;99.90
16327;DHT22;34812;49.846;9.610;2022-08-04T01:12:48;18.30;99.90
16327;DHT22;34812;49.846;9.610;2022-08-04T01:14:03;18.30;99.90
16327;DHT22;34812;49.846;9.610;2022-08-04T01:15:17;18.30;99.90
16327;DHT22;34812;49.846;9.610;2022-08-04T01:16:24;18.30;99.90
16327;DHT22;34812;49.846;9.610;2022-08-04T01:17:36;18.30;99.90
16327;DHT22;34812;49.846;9.610;2022-08-04T01:18:50;18.40;99.90
16327;DHT22;34812;49.846;9.610;2022-08-04T01:19:59;18.40;99.90
16327;DHT22;34812;49.846;9.610;2022-08-04T01:21:18;18.40;99.90
16327;DHT22;34812;49.846;9.610;2022-08-04T01:23:05;18.30;99.90
16327;DHT22;34812;49.846;9.610;2022-08-04T01:24:29;18.30;99.90
16327;DHT22;34812;49.846;9.610;2022-08-04T01:27:20;18.30;99.90
16327;DHT22;34812;49.846;9.610;2022-08-04T01:29:50;18.10;99.90
16327;DHT22;34812;49.846;9.610;2022-08-04T01:30:56;18.10;99.90
16327;DHT22;34812;49.846;9.610;2022-08-04T01:32:02;18.10;99.90
16327;DHT22;34812;49.846;9.610;2022-08-04T01:33:08;18.00;99.90
16327;DHT22;34812;49.846;9.610;2022-08-04T01:34:12;18.00;99.90
16327;DHT22;34812;49.846;9.610;2022-08-04T01:35:21;17.90;99.90
16327;DHT22;34812;49.846;9.610;2022-08-04T01:36:24;17.90;99.90
16327;DHT22;34812;49.846;9.610;2022-08-04T01:37:35;17.90;99.90
16327;DHT22;34812;49.846;9.610;2022-08-04T01:38:40;17.90;99.90
16327;DHT22;34812;49.846;9.610;2022-08-04T01:39:49;17.90;99.90
16327;DHT22;34812;49.846;9.610;2022-08-04T01:40:52;17.90;99.90
16327;DHT22;34812;49.846;9.610;2022-08-04T01:41:55;17.80;99.90
16327;DHT22;34812;49.846;9.610;2022-08-04T01:42:57;17.80;99.90
16327;DHT22;34812;49.846;9.610;2022-08-04T01:44:01;17.80;99.90
16327;DHT22;34812;49.846;9.610;2022-08-04T01:45:06;17.80;99.90
16327;DHT22;34812;49.846;9.610;2022-08-04T01:46:10;17.80;99.90
16327;DHT22;34812;49.846;9.610;2022-08-04T01:47:11;17.70;99.90
16327;DHT22;34812;49.846;9.610;2022-08-04T01:48:15;17.70;99.90
16327;DHT22;34812;49.846;9.610;2022-08-04T01:49:20;17.70;99.90
16327;DHT22;34812;49.846;9.610;2022-08-04T01:50:23;17.70;99.90
16327;DHT22;34812;49.846;9.610;2022-08-04T01:51:27;17.70;99.90
16327;DHT22;34812;49.846;9.610;2022-08-04T01:52:31;17.70;99.90
16327;DHT22;34812;49.846;9.610;2022-08-04T01:53:35;17.70;99.90
16327;DHT22;34812;49.846;9.610;2022-08-04T01:54:39;17.70;99.90
16327;DHT22;34812;49.846;9.610;2022-08-04T01:55:42;17.60;99.90
16327;DHT22;34812;49.846;9.610;2022-08-04T01:56:44;17.60;99.90
16327;DHT22;34812;49.846;9.610;2022-08-04T01:57:48;17.60;99.90
16327;DHT22;34812;49.846;9.610;2022-08-04T01:58:50;17.60;99.90
16327;DHT22;34812;49.846;9.610;2022-08-04T01:59:57;17.60;99.90
16327;DHT22;34812;49.846;9.610;2022-08-04T02:01:02;17.60;99.90
16327;DHT22;34812;49.846;9.610;2022-08-04T02:02:03;17.50;99.90
16327;DHT22;34812;49.846;9.610;2022-08-04T02:03:05;17.50;99.90
16327;DHT22;34812;49.846;9.610;2022-08-04T02:04:06;17.50;99.90
16327;DHT22;34812;49.846;9.610;2022-08-04T02:05:09;17.50;99.90
16327;DHT22;34812;49.846;9.610;2022-08-04T02:06:17;17.40;99.90
16327;DHT22;34812;49.846;9.610;2022-08-04T02:07:43;17.40;99.90
16327;DHT22;34812;49.846;9.610;2022-08-04T02:08:51;17.40;99.90
16327;DHT22;34812;49.846;9.610;2022-08-04T02:10:03;17.50;99.90
16327;DHT22;34812;49.846;9.610;2022-08-04T02:11:14;17.50;99.90
16327;DHT22;34812;49.846;9.610;2022-08-04T02:12:22;17.50;99.90
16327;DHT22;34812;49.846;9.610;2022-08-04T02:13:29;17.50;99.90
16327;DHT22;34812;49.846;9.610;2022-08-04T02:14:41;17.50;99.90
16327;DHT22;34812;49.846;9.610;2022-08-04T02:15:52;17.50;99.90
16327;DHT22;34812;49.846;9.610;2022-08-04T02:16:59;17.50;99.90
16327;DHT22;34812;49.846;9.610;2022-08-04T02:18:03;17.40;99.90
16327;DHT22;34812;49.846;9.610;2022-08-04T02:19:15;17.40;99.90
16327;DHT22;34812;49.846;9.610;2022-08-04T02:20:23;17.40;99.90
16327;DHT22;34812;49.846;9.610;2022-08-04T02:21:25;17.40;99.90
16327;DHT22;34812;49.846;9.610;2022-08-04T02:22:27;17.30;99.90
16327;DHT22;34812;49.846;9.610;2022-08-04T02:23:33;17.30;99.90
16327;DHT22;34812;49.846;9.610;2022-08-04T02:24:42;17.30;99.90
16327;DHT22;34812;49.846;9.610;2022-08-04T02:25:51;17.30;99.90
16327;DHT22;34812;49.846;9.610;2022-08-04T02:26:55;17.30;99.90
16327;DHT22;34812;49.846;9.610;2022-08-04T02:28:10;17.30;99.90
16327;DHT22;34812;49.846;9.610;2022-08-04T02:29:16;17.30;99.90
16327;DHT22;34812;49.846;9.610;2022-08-04T02:30:20;17.30;99.90
16327;DHT22;34812;49.846;9.610;2022-08-04T02:31:26;17.30;99.90
16327;DHT22;34812;49.846;9.610;2022-08-04T02:32:35;17.20;99.90
16327;DHT22;34812;49.846;9.610;2022-08-04T02:33:42;17.20;99.90
16327;DHT22;34812;49.846;9.610;2022-08-04T02:34:48;17.20;99.90
16327;DHT22;34812;49.846;9.610;2022-08-04T02:35:58;17.20;99.90
16327;DHT22;34812;49.846;9.610;2022-08-04T02:37:03;17.10;99.90
16327;DHT22;34812;49.846;9.610;2022-08-04T02:38:11;17.10;99.90
16327;DHT22;34812;49.846;9.610;2022-08-04T02:39:19;17.10;99.90
16327;DHT22;34812;49.846;9.610;2022-08-04T02:40:20;17.10;99.90
16327;DHT22;34812;49.846;9.610;2022-08-04T02:41:26;17.10;99.90
16327;DHT22;34812;49.846;9.610;2022-08-04T02:42:28;17.10;99.90
16327;DHT22;34812;49.846;9.610;2022-08-04T02:43:30;17.00;99.90
16327;DHT22;34812;49.846;9.610;2022-08-04T02:44:33;17.00;99.90
16327;DHT22;34812;49.846;9.610;2022-08-04T02:45:40;17.00;99.90
16327;DHT22;34812;49.846;9.610;2022-08-04T02:46:42;17.00;99.90
16327;DHT22;34812;49.846;9.610;2022-08-04T02:47:47;17.00;99.90
16327;DHT22;34812;49.846;9.610;2022-08-04T02:48:51;17.00;99.90
16327;DHT22;34812;49.846;9.610;2022-08-04T02:49:56;17.00;99.90
16327;DHT22;34812;49.846;9.610;2022-08-04T02:50:58;17.00;99.90
16327;DHT22;34812;49.846;9.610;2022-08-04T02:52:01;17.00;99.90
16327;DHT22;34812;49.846;9.610;2022-08-04T02:53:03;16.90;99.90
16327;DHT22;34812;49.846;9.610;2022-08-04T02:54:07;16.90;99.90
16327;DHT22;34812;49.846;9.610;2022-08-04T02:55:09;16.90;99.90
16327;DHT22;34812;49.846;9.610;2022-08-04T02:56:12;16.80;99.90
16327;DHT22;34812;49.846;9.610;2022-08-04T02:57:17;16.90;99.90
16327;DHT22;34812;49.846;9.610;2022-08-04T02:58:19;16.90;99.90
16327;DHT22;34812;49.846;9.610;2022-08-04T02:59:24;16.80;99.90
16327;DHT22;34812;49.846;9.610;2022-08-04T03:00:27;16.80;99.90
16327;DHT22;34812;49.846;9.610;2022-08-04T03:01:28;16.70;99.90
16327;DHT22;34812;49.846;9.610;2022-08-04T03:02:34;16.80;99.90
16327;DHT22;34812;49.846;9.610;2022-08-04T03:03:47;16.80;99.90
16327;DHT22;34812;49.846;9.610;2022-08-04T03:04:56;16.80;99.90
16327;DHT22;34812;49.846;9.610;2022-08-04T03:06:21;16.80;99.90
16327;DHT22;34812;49.846;9.610;2022-08-04T03:09:09;16.80;99.90
16327;DHT22;34812;49.846;9.610;2022-08-04T03:10:25;16.90;99.90
16327;DHT22;34812;49.846;9.610;2022-08-04T03:12:05;16.90;99.90
16327;DHT22;34812;49.846;9.610;2022-08-04T03:13:43;17.00;99.90
16327;DHT22;34812;49.846;9.610;2022-08-04T03:15:03;17.00;99.90
16327;DHT22;34812;49.846;9.610;2022-08-04T03:16:27;17.00;99.90
16327;DHT22;34812;49.846;9.610;2022-08-04T03:21:30;16.90;99.90
16327;DHT22;34812;49.846;9.610;2022-08-04T03:22:52;16.90;99.90
16327;DHT22;34812;49.846;9.610;2022-08-04T03:24:24;16.80;99.90
16327;DHT22;34812;49.846;9.610;2022-08-04T03:26:15;16.80;99.90
16327;DHT22;34812;49.846;9.610;2022-08-04T03:27:47;16.70;99.90
16327;DHT22;34812;49.846;9.610;2022-08-04T03:30:38;16.70;99.90
16327;DHT22;34812;49.846;9.610;2022-08-04T03:31:56;16.70;99.90
16327;DHT22;34812;49.846;9.610;2022-08-04T03:33:36;16.70;99.90
16327;DHT22;34812;49.846;9.610;2022-08-04T03:34:52;16.60;99.90
16327;DHT22;34812;49.846;9.610;2022-08-04T03:36:20;16.60;99.90
16327;DHT22;34812;49.846;9.610;2022-08-04T03:37:37;16.60;99.90
16327;DHT22;34812;49.846;9.610;2022-08-04T03:39:21;16.60;99.90
16327;DHT22;34812;49.846;9.610;2022-08-04T03:40:39;16.50;99.90
16327;DHT22;34812;49.846;9.610;2022-08-04T03:43:45;16.50;99.90
16327;DHT22;34812;49.846;9.610;2022-08-04T03:45:18;16.50;99.90
16327;DHT22;34812;49.846;9.610;2022-08-04T03:46:42;16.40;99.90
16327;DHT22;34812;49.846;9.610;2022-08-04T03:48:08;16.40;99.90
16327;DHT22;34812;49.846;9.610;2022-08-04T03:49:31;16.40;99.90
16327;DHT22;34812;49.846;9.610;2022-08-04T03:50:54;16.40;99.90
16327;DHT22;34812;49.846;9.610;2022-08-04T03:52:39;16.40;99.90
16327;DHT22;34812;49.846;9.610;2022-08-04T03:54:15;16.40;99.90
16327;DHT22;34812;49.846;9.610;2022-08-04T03:55:40;16.40;99.90
16327;DHT22;34812;49.846;9.610;2022-08-04T03:56:55;16.40;99.90
16327;DHT22;34812;49.846;9.610;2022-08-04T03:58:28;16.40;99.90
16327;DHT22;34812;49.846;9.610;2022-08-04T03:59:53;16.40;99.90
16327;DHT22;34812;49.846;9.610;2022-08-04T04:01:09;16.40;99.90
16327;DHT22;34812;49.846;9.610;2022-08-04T04:04:25;16.30;99.90
16327;DHT22;34812;49.846;9.610;2022-08-04T04:07:29;16.30;99.90
16327;DHT22;34812;49.846;9.610;2022-08-04T04:10:29;16.30;99.90
16327;DHT22;34812;49.846;9.610;2022-08-04T04:11:43;16.40;99.90
16327;DHT22;34812;49.846;9.610;2022-08-04T04:13:06;16.40;99.90
16327;DHT22;34812;49.846;9.610;2022-08-04T04:14:35;16.40;99.90
16327;DHT22;34812;49.846;9.610;2022-08-04T04:15:52;16.50;99.90
16327;DHT22;34812;49.846;9.610;2022-08-04T04:18:46;16.50;99.90
16327;DHT22;34812;49.846;9.610;2022-08-04T04:20:11;16.50;99.90
16327;DHT22;34812;49.846;9.610;2022-08-04T04:21:28;16.60;99.90
16327;DHT22;34812;49.846;9.610;2022-08-04T04:22:50;16.60;99.90
16327;DHT22;34812;49.846;9.610;2022-08-04T04:24:15;16.70;99.90
16327;DHT22;34812;49.846;9.610;2022-08-04T04:25:33;16.70;99.90
16327;DHT22;34812;49.846;9.610;2022-08-04T04:26:58;16.70;99.90
16327;DHT22;34812;49.846;9.610;2022-08-04T04:28:17;16.70;99.90
16327;DHT22;34812;49.846;9.610;2022-08-04T04:29:47;16.70;99.90
16327;DHT22;34812;49.846;9.610;2022-08-04T04:31:01;16.70;99.90
16327;DHT22;34812;49.846;9.610;2022-08-04T04:32:12;16.70;99.90
16327;DHT22;34812;49.846;9.610;2022-08-04T04:33:29;16.70;99.90
16327;DHT22;34812;49.846;9.610;2022-08-04T04:34:39;16.80;99.90
16327;DHT22;34812;49.846;9.610;2022-08-04T04:35:54;16.80;99.90
16327;DHT22;34812;49.846;9.610;2022-08-04T04:37:11;16.80;99.90
16327;DHT22;34812;49.846;9.610;2022-08-04T04:38:26;16.80;99.90
16327;DHT22;34812;49.846;9.610;2022-08-04T04:39:34;16.80;99.90
16327;DHT22;34812;49.846;9.610;2022-08-04T04:40:44;16.80;99.90
16327;DHT22;34812;49.846;9.610;2022-08-04T04:42:16;16.80;99.90
16327;DHT22;34812;49.846;9.610;2022-08-04T04:43:46;16.80;99.90
16327;DHT22;34812;49.846;9.610;2022-08-04T04:45:11;16.80;99.90
16327;DHT22;34812;49.846;9.610;2022-08-04T04:46:25;16.80;99.90
16327;DHT22;34812;49.846;9.610;2022-08-04T04:47:36;16.80;99.90
16327;DHT22;34812;49.846;9.610;2022-08-04T04:48:45;16.80;99.90
16327;DHT22;34812;49.846;9.610;2022-08-04T04:49:53;16.80;99.90
16327;DHT22;34812;49.846;9.610;2022-08-04T04:51:08;16.80;99.90
16327;DHT22;34812;49.846;9.610;2022-08-04T04:52:19;16.80;99.90
16327;DHT22;34812;49.846;9.610;2022-08-04T04:53:27;16.90;99.90
16327;DHT22;34812;49.846;9.610;2022-08-04T04:54:35;16.90;99.90
16327;DHT22;34812;49.846;9.610;2022-08-04T04:55:41;17.00;99.90
16327;DHT22;34812;49.846;9.610;2022-08-04T04:56:47;17.00;99.90
16327;DHT22;34812;49.846;9.610;2022-08-04T04:57:51;17.10;99.90
16327;DHT22;34812;49.846;9.610;2022-08-04T04:58:55;17.10;99.90
16327;DHT22;34812;49.846;9.610;2022-08-04T04:59:58;17.10;99.90
16327;DHT22;34812;49.846;9.610;2022-08-04T05:04:16;17.20;99.90
16327;DHT22;34812;49.846;9.610;2022-08-04T05:05:42;17.30;99.90
16327;DHT22;34812;49.846;9.610;2022-08-04T05:06:59;17.30;99.90
16327;DHT22;34812;49.846;9.610;2022-08-04T05:08:38;17.30;99.90
16327;DHT22;34812;49.846;9.610;2022-08-04T05:09:55;17.40;99.90
16327;DHT22;34812;49.846;9.610;2022-08-04T05:11:21;17.40;99.90
16327;DHT22;34812;49.846;9.610;2022-08-04T05:12:36;17.40;99.90
16327;DHT22;34812;49.846;9.610;2022-08-04T05:13:42;17.50;99.90
16327;DHT22;34812;49.846;9.610;2022-08-04T05:14:47;17.50;99.90
16327;DHT22;34812;49.846;9.610;2022-08-04T05:15:52;17.50;99.90
16327;DHT22;34812;49.846;9.610;2022-08-04T05:17:02;17.60;99.90
16327;DHT22;34812;49.846;9.610;2022-08-04T05:18:05;17.60;99.90
16327;DHT22;34812;49.846;9.610;2022-08-04T05:19:18;17.60;99.90
16327;DHT22;34812;49.846;9.610;2022-08-04T05:20:26;17.70;99.90
16327;DHT22;34812;49.846;9.610;2022-08-04T05:21:36;17.70;99.90
16327;DHT22;34812;49.846;9.610;2022-08-04T05:22:42;17.80;99.90
16327;DHT22;34812;49.846;9.610;2022-08-04T05:23:49;17.80;99.90
16327;DHT22;34812;49.846;9.610;2022-08-04T05:24:56;17.90;99.90
16327;DHT22;34812;49.846;9.610;2022-08-04T05:26:05;18.00;99.90
16327;DHT22;34812;49.846;9.610;2022-08-04T05:27:12;18.00;99.90
16327;DHT22;34812;49.846;9.610;2022-08-04T05:28:19;18.00;99.90
16327;DHT22;34812;49.846;9.610;2022-08-04T05:29:26;18.10;99.90
16327;DHT22;34812;49.846;9.610;2022-08-04T05:30:30;18.10;99.90
16327;DHT22;34812;49.846;9.610;2022-08-04T05:31:36;18.10;99.90
16327;DHT22;34812;49.846;9.610;2022-08-04T05:32:47;18.10;99.90
16327;DHT22;34812;49.846;9.610;2022-08-04T05:33:52;18.20;99.90
16327;DHT22;34812;49.846;9.610;2022-08-04T05:34:57;18.20;99.90
16327;DHT22;34812;49.846;9.610;2022-08-04T05:36:04;18.30;99.90
16327;DHT22;34812;49.846;9.610;2022-08-04T05:37:08;18.30;99.90
16327;DHT22;34812;49.846;9.610;2022-08-04T05:38:14;18.30;99.90
16327;DHT22;34812;49.846;9.610;2022-08-04T05:39:21;18.30;99.90
16327;DHT22;34812;49.846;9.610;2022-08-04T05:40:24;18.40;99.90
16327;DHT22;34812;49.846;9.610;2022-08-04T05:41:27;18.40;99.90
16327;DHT22;34812;49.846;9.610;2022-08-04T05:42:29;18.50;99.90
16327;DHT22;34812;49.846;9.610;2022-08-04T05:43:32;18.50;99.90
16327;DHT22;34812;49.846;9.610;2022-08-04T05:44:34;18.50;99.90
16327;DHT22;34812;49.846;9.610;2022-08-04T05:45:36;18.60;99.90
16327;DHT22;34812;49.846;9.610;2022-08-04T05:46:37;18.60;99.90
16327;DHT22;34812;49.846;9.610;2022-08-04T05:47:39;18.60;99.90
16327;DHT22;34812;49.846;9.610;2022-08-04T05:48:40;18.70;99.90
16327;DHT22;34812;49.846;9.610;2022-08-04T05:49:43;18.70;99.90
16327;DHT22;34812;49.846;9.610;2022-08-04T05:50:45;18.80;99.90
16327;DHT22;34812;49.846;9.610;2022-08-04T05:51:47;18.80;99.90
16327;DHT22;34812;49.846;9.610;2022-08-04T05:52:50;18.90;99.90
16327;DHT22;34812;49.846;9.610;2022-08-04T05:53:52;18.90;99.90
16327;DHT22;34812;49.846;9.610;2022-08-04T05:54:57;18.90;99.90
16327;DHT22;34812;49.846;9.610;2022-08-04T05:55:59;19.00;99.90
16327;DHT22;34812;49.846;9.610;2022-08-04T05:57:04;19.00;99.90
16327;DHT22;34812;49.846;9.610;2022-08-04T05:58:05;19.00;99.90
16327;DHT22;34812;49.846;9.610;2022-08-04T05:59:09;19.10;99.90
16327;DHT22;34812;49.846;9.610;2022-08-04T06:00:11;19.10;99.90
16327;DHT22;34812;49.846;9.610;2022-08-04T06:01:13;19.20;99.90
16327;DHT22;34812;49.846;9.610;2022-08-04T06:02:17;19.20;99.90
16327;DHT22;34812;49.846;9.610;2022-08-04T06:03:20;19.30;99.90
16327;DHT22;34812;49.846;9.610;2022-08-04T06:04:25;19.30;99.90
16327;DHT22;34812;49.846;9.610;2022-08-04T06:05:28;19.40;99.90
16327;DHT22;34812;49.846;9.610;2022-08-04T06:06:29;19.50;99.90
16327;DHT22;34812;49.846;9.610;2022-08-04T06:07:32;19.60;99.90
16327;DHT22;34812;49.846;9.610;2022-08-04T06:08:33;19.60;99.90
16327;DHT22;34812;49.846;9.610;2022-08-04T06:09:34;19.70;99.90
16327;DHT22;34812;49.846;9.610;2022-08-04T06:10:38;19.70;99.90
16327;DHT22;34812;49.846;9.610;2022-08-04T06:11:42;19.80;99.90
16327;DHT22;34812;49.846;9.610;2022-08-04T06:12:51;19.80;99.90
16327;DHT22;34812;49.846;9.610;2022-08-04T06:13:56;19.90;99.90
16327;DHT22;34812;49.846;9.610;2022-08-04T06:14:59;19.90;99.90
16327;DHT22;34812;49.846;9.610;2022-08-04T06:16:01;20.00;99.90
16327;DHT22;34812;49.846;9.610;2022-08-04T06:17:05;20.10;99.90
16327;DHT22;34812;49.846;9.610;2022-08-04T06:18:09;20.10;99.90
16327;DHT22;34812;49.846;9.610;2022-08-04T06:19:12;20.10;99.90
16327;DHT22;34812;49.846;9.610;2022-08-04T06:20:15;20.20;99.90
16327;DHT22;34812;49.846;9.610;2022-08-04T06:21:17;20.20;99.90
16327;DHT22;34812;49.846;9.610;2022-08-04T06:22:21;20.30;99.90
16327;DHT22;34812;49.846;9.610;2022-08-04T06:23:25;20.30;99.90
16327;DHT22;34812;49.846;9.610;2022-08-04T06:24:28;20.30;99.90
16327;DHT22;34812;49.846;9.610;2022-08-04T06:25:32;20.40;99.90
16327;DHT22;34812;49.846;9.610;2022-08-04T06:26:36;20.50;99.90
16327;DHT22;34812;49.846;9.610;2022-08-04T06:27:38;20.50;99.90
16327;DHT22;34812;49.846;9.610;2022-08-04T06:28:41;20.60;99.90
16327;DHT22;34812;49.846;9.610;2022-08-04T06:29:44;20.60;99.90
16327;DHT22;34812;49.846;9.610;2022-08-04T06:30:47;20.70;99.90
16327;DHT22;34812;49.846;9.610;2022-08-04T06:31:50;20.70;99.90
16327;DHT22;34812;49.846;9.610;2022-08-04T06:32:59;20.80;99.90
16327;DHT22;34812;49.846;9.610;2022-08-04T06:34:03;20.80;99.90
16327;DHT22;34812;49.846;9.610;2022-08-04T06:35:05;20.80;99.90
16327;DHT22;34812;49.846;9.610;2022-08-04T06:36:09;20.90;99.90
16327;DHT22;34812;49.846;9.610;2022-08-04T06:37:12;20.90;99.90
16327;DHT22;34812;49.846;9.610;2022-08-04T06:38:14;21.00;99.90
16327;DHT22;34812;49.846;9.610;2022-08-04T06:39:17;21.10;99.90
16327;DHT22;34812;49.846;9.610;2022-08-04T06:40:21;21.10;99.90
16327;DHT22;34812;49.846;9.610;2022-08-04T06:41:23;21.20;99.90
16327;DHT22;34812;49.846;9.610;2022-08-04T06:42:26;21.20;99.90
16327;DHT22;34812;49.846;9.610;2022-08-04T06:43:29;21.30;99.90
16327;DHT22;34812;49.846;9.610;2022-08-04T06:44:32;21.30;99.90
16327;DHT22;34812;49.846;9.610;2022-08-04T06:45:36;21.40;99.90
16327;DHT22;34812;49.846;9.610;2022-08-04T06:46:40;21.40;99.90
16327;DHT22;34812;49.846;9.610;2022-08-04T06:47:43;21.50;99.90
16327;DHT22;34812;49.846;9.610;2022-08-04T06:48:48;21.50;99.90
16327;DHT22;34812;49.846;9.610;2022-08-04T06:49:53;21.50;99.90
16327;DHT22;34812;49.846;9.610;2022-08-04T06:50:54;21.60;99.90
16327;DHT22;34812;49.846;9.610;2022-08-04T06:51:57;21.60;99.90
16327;DHT22;34812;49.846;9.610;2022-08-04T06:52:58;21.70;99.90
16327;DHT22;34812;49.846;9.610;2022-08-04T06:53:59;21.80;99.90
16327;DHT22;34812;49.846;9.610;2022-08-04T06:55:00;21.90;99.90
16327;DHT22;34812;49.846;9.610;2022-08-04T06:56:03;22.00;99.90
16327;DHT22;34812;49.846;9.610;2022-08-04T06:57:05;22.00;99.90
16327;DHT22;34812;49.846;9.610;2022-08-04T06:58:09;22.10;99.90
16327;DHT22;34812;49.846;9.610;2022-08-04T06:59:11;22.20;99.90
16327;DHT22;34812;49.846;9.610;2022-08-04T07:00:15;22.20;99.90
16327;DHT22;34812;49.846;9.610;2022-08-04T07:01:18;22.20;99.90
16327;DHT22;34812;49.846;9.610;2022-08-04T07:02:24;22.20;99.90
16327;DHT22;34812;49.846;9.610;2022-08-04T07:03:25;22.30;99.90
16327;DHT22;34812;49.846;9.610;2022-08-04T07:04:27;22.30;99.90
16327;DHT22;34812;49.846;9.610;2022-08-04T07:05:28;22.50;99.90
16327;DHT22;34812;49.846;9.610;2022-08-04T07:06:31;22.60;99.90
16327;DHT22;34812;49.846;9.610;2022-08-04T07:07:33;22.70;99.90
16327;DHT22;34812;49.846;9.610;2022-08-04T07:08:35;22.80;99.90
16327;DHT22;34812;49.846;9.610;2022-08-04T07:09:37;22.80;99.90
16327;DHT22;34812;49.846;9.610;2022-08-04T07:10:39;22.90;99.90
16327;DHT22;34812;49.846;9.610;2022-08-04T07:11:40;23.00;99.90
16327;DHT22;34812;49.846;9.610;2022-08-04T07:12:42;23.10;99.90
16327;DHT22;34812;49.846;9.610;2022-08-04T07:13:45;23.20;99.90
16327;DHT22;34812;49.846;9.610;2022-08-04T07:14:48;23.30;99.90
16327;DHT22;34812;49.846;9.610;2022-08-04T07:15:49;23.30;99.90
16327;DHT22;34812;49.846;9.610;2022-08-04T07:16:52;23.30;99.90
16327;DHT22;34812;49.846;9.610;2022-08-04T07:17:54;23.40;99.90
16327;DHT22;34812;49.846;9.610;2022-08-04T07:18:59;23.40;99.90
16327;DHT22;34812;49.846;9.610;2022-08-04T07:20:02;23.40;99.90
16327;DHT22;34812;49.846;9.610;2022-08-04T07:21:03;23.50;99.90
16327;DHT22;34812;49.846;9.610;2022-08-04T07:22:06;23.60;99.90
16327;DHT22;34812;49.846;9.610;2022-08-04T07:23:08;23.60;99.90
16327;DHT22;34812;49.846;9.610;2022-08-04T07:24:11;23.70;99.90
16327;DHT22;34812;49.846;9.610;2022-08-04T07:25:14;23.70;99.90
16327;DHT22;34812;49.846;9.610;2022-08-04T07:26:16;23.80;99.90
16327;DHT22;34812;49.846;9.610;2022-08-04T07:27:18;23.90;99.90
16327;DHT22;34812;49.846;9.610;2022-08-04T07:28:21;23.90;99.90
16327;DHT22;34812;49.846;9.610;2022-08-04T07:29:24;24.00;99.90
16327;DHT22;34812;49.846;9.610;2022-08-04T07:30:27;24.10;99.90
16327;DHT22;34812;49.846;9.610;2022-08-04T07:31:30;24.10;99.90
16327;DHT22;34812;49.846;9.610;2022-08-04T07:32:32;24.20;99.90
16327;DHT22;34812;49.846;9.610;2022-08-04T07:33:34;24.20;99.90
16327;DHT22;34812;49.846;9.610;2022-08-04T07:34:37;24.30;99.90
16327;DHT22;34812;49.846;9.610;2022-08-04T07:35:39;24.30;99.90
16327;DHT22;34812;49.846;9.610;2022-08-04T07:36:40;24.30;99.90
16327;DHT22;34812;49.846;9.610;2022-08-04T07:37:42;24.30;99.90
16327;DHT22;34812;49.846;9.610;2022-08-04T07:38:43;24.40;99.90
16327;DHT22;34812;49.846;9.610;2022-08-04T07:39:44;24.50;99.90